sensor_id;sensor_type;location;lat;lon;timestamp;P1;durP1;ratioP1;P2;durP2;ratioP2
49738;SDS011;53662;50.114;8.626;2022-07-11T00:02:02;5.20;;;2.22;;
49738;SDS011;53662;50.114;8.626;2022-07-11T00:04:28;6.90;;;2.10;;
49738;SDS011;53662;50.114;8.626;2022-07-11T00:06:55;2.17;;;2.08;;
49738;SDS011;53662;50.114;8.626;2022-07-11T00:09:21;9.25;;;2.25;;
49738;SDS011;53662;50.114;8.626;2022-07-11T00:11:47;2.05;;;1.90;;
49738;SDS011;53662;50.114;8.626;2022-07-11T00:14:13;4.10;;;2.13;;
49738;SDS011;53662;50.114;8.626;2022-07-11T00:16:39;4.45;;;2.20;;
49738;SDS011;53662;50.114;8.626;2022-07-11T00:19:05;4.97;;;2.22;;
49738;SDS011;53662;50.114;8.626;2022-07-11T00:21:31;4.45;;;2.13;;
49738;SDS011;53662;50.114;8.626;2022-07-11T00:23:58;3.35;;;1.90;;
49738;SDS011;53662;50.114;8.626;2022-07-11T00:26:25;3.33;;;2.20;;
49738;SDS011;53662;50.114;8.626;2022-07-11T00:28:50;5.72;;;2.42;;
49738;SDS011;53662;50.114;8.626;2022-07-11T00:31:16;6.53;;;2.38;;
49738;SDS011;53662;50.114;8.626;2022-07-11T00:33:42;5.95;;;2.10;;
49738;SDS011;53662;50.114;8.626;2022-07-11T00:36:08;3.58;;;2.20;;
49738;SDS011;53662;50.114;8.626;2022-07-11T00:38:35;4.43;;;2.28;;
49738;SDS011;53662;50.114;8.626;2022-07-11T00:41:00;4.55;;;2.35;;
49738;SDS011;53662;50.114;8.626;2022-07-11T00:43:33;2.92;;;2.42;;
49738;SDS011;53662;50.114;8.626;2022-07-11T00:45:59;6.25;;;2.17;;
49738;SDS011;53662;50.114;8.626;2022-07-11T00:48:26;4.20;;;2.30;;
49738;SDS011;53662;50.114;8.626;2022-07-11T00:50:52;5.10;;;2.13;;
49738;SDS011;53662;50.114;8.626;2022-07-11T00:53:21;2.25;;;2.08;;
49738;SDS011;53662;50.114;8.626;2022-07-11T00:55:47;4.00;;;1.90;;
49738;SDS011;53662;50.114;8.626;2022-07-11T00:58:14;2.28;;;1.92;;
49738;SDS011;53662;50.114;8.626;2022-07-11T01:00:40;2.58;;;2.00;;
49738;SDS011;53662;50.114;8.626;2022-07-11T01:03:06;3.35;;;1.85;;
49738;SDS011;53662;50.114;8.626;2022-07-11T01:05:32;4.53;;;2.00;;
49738;SDS011;53662;50.114;8.626;2022-07-11T01:07:58;2.78;;;2.10;;
49738;SDS011;53662;50.114;8.626;2022-07-11T01:10:24;4.60;;;2.28;;
49738;SDS011;53662;50.114;8.626;2022-07-11T01:12:50;7.32;;;1.95;;
49738;SDS011;53662;50.114;8.626;2022-07-11T01:15:16;3.78;;;2.28;;
49738;SDS011;53662;50.114;8.626;2022-07-11T01:17:42;1.88;;;1.77;;
49738;SDS011;53662;50.114;8.626;2022-07-11T01:20:08;2.15;;;1.70;;
49738;SDS011;53662;50.114;8.626;2022-07-11T01:22:54;5.45;;;2.30;;
49738;SDS011;53662;50.114;8.626;2022-07-11T01:25:23;4.78;;;2.20;;
49738;SDS011;53662;50.114;8.626;2022-07-11T01:27:55;2.53;;;2.33;;
49738;SDS011;53662;50.114;8.626;2022-07-11T01:30:22;4.65;;;2.10;;
49738;SDS011;53662;50.114;8.626;2022-07-11T01:32:51;4.38;;;2.40;;
49738;SDS011;53662;50.114;8.626;2022-07-11T01:35:17;4.57;;;2.25;;
49738;SDS011;53662;50.114;8.626;2022-07-11T01:37:43;2.63;;;1.73;;
49738;SDS011;53662;50.114;8.626;2022-07-11T01:40:09;3.45;;;2.15;;
49738;SDS011;53662;50.114;8.626;2022-07-11T01:42:35;3.35;;;1.50;;
49738;SDS011;53662;50.114;8.626;2022-07-11T01:45:01;2.45;;;1.98;;
49738;SDS011;53662;50.114;8.626;2022-07-11T01:47:28;2.92;;;2.25;;
49738;SDS011;53662;50.114;8.626;2022-07-11T01:49:53;3.20;;;1.95;;
49738;SDS011;53662;50.114;8.626;2022-07-11T01:52:20;3.63;;;2.22;;
49738;SDS011;53662;50.114;8.626;2022-07-11T01:54:46;2.85;;;2.00;;
49738;SDS011;53662;50.114;8.626;2022-07-11T01:57:12;2.65;;;2.15;;
49738;SDS011;53662;50.114;8.626;2022-07-11T01:59:38;2.42;;;2.20;;
49738;SDS011;53662;50.114;8.626;2022-07-11T02:02:04;4.40;;;2.95;;
49738;SDS011;53662;50.114;8.626;2022-07-11T02:04:30;4.70;;;2.13;;
49738;SDS011;53662;50.114;8.626;2022-07-11T02:06:56;3.03;;;2.60;;
49738;SDS011;53662;50.114;8.626;2022-07-11T02:09:22;2.67;;;2.20;;
49738;SDS011;53662;50.114;8.626;2022-07-11T02:11:48;7.75;;;2.90;;
49738;SDS011;53662;50.114;8.626;2022-07-11T02:14:14;4.50;;;2.08;;
49738;SDS011;53662;50.114;8.626;2022-07-11T02:16:40;2.50;;;2.30;;
49738;SDS011;53662;50.114;8.626;2022-07-11T02:19:06;7.00;;;2.83;;
49738;SDS011;53662;50.114;8.626;2022-07-11T02:21:32;6.47;;;2.58;;
49738;SDS011;53662;50.114;8.626;2022-07-11T02:23:58;2.30;;;2.10;;
49738;SDS011;53662;50.114;8.626;2022-07-11T02:26:25;2.40;;;2.22;;
49738;SDS011;53662;50.114;8.626;2022-07-11T02:28:50;2.58;;;2.38;;
49738;SDS011;53662;50.114;8.626;2022-07-11T02:31:16;6.07;;;2.40;;
49738;SDS011;53662;50.114;8.626;2022-07-11T02:33:42;5.60;;;2.70;;
49738;SDS011;53662;50.114;8.626;2022-07-11T02:36:08;5.85;;;2.78;;
49738;SDS011;53662;50.114;8.626;2022-07-11T02:38:35;3.05;;;2.28;;
49738;SDS011;53662;50.114;8.626;2022-07-11T02:41:01;3.15;;;2.33;;
49738;SDS011;53662;50.114;8.626;2022-07-11T02:43:28;2.10;;;1.92;;
49738;SDS011;53662;50.114;8.626;2022-07-11T02:45:54;7.22;;;2.40;;
49738;SDS011;53662;50.114;8.626;2022-07-11T02:48:20;3.60;;;2.40;;
49738;SDS011;53662;50.114;8.626;2022-07-11T02:50:46;4.22;;;2.50;;
49738;SDS011;53662;50.114;8.626;2022-07-11T02:53:12;7.03;;;2.80;;
49738;SDS011;53662;50.114;8.626;2022-07-11T02:55:38;2.75;;;2.40;;
49738;SDS011;53662;50.114;8.626;2022-07-11T02:58:04;5.15;;;2.15;;
49738;SDS011;53662;50.114;8.626;2022-07-11T03:00:31;2.53;;;2.20;;
49738;SDS011;53662;50.114;8.626;2022-07-11T03:02:57;4.93;;;2.58;;
49738;SDS011;53662;50.114;8.626;2022-07-11T03:05:23;5.20;;;2.60;;
49738;SDS011;53662;50.114;8.626;2022-07-11T03:07:49;4.20;;;2.70;;
49738;SDS011;53662;50.114;8.626;2022-07-11T03:10:15;2.63;;;2.42;;
49738;SDS011;53662;50.114;8.626;2022-07-11T03:12:41;2.90;;;2.03;;
49738;SDS011;53662;50.114;8.626;2022-07-11T03:15:07;3.08;;;2.50;;
49738;SDS011;53662;50.114;8.626;2022-07-11T03:17:36;7.25;;;2.47;;
49738;SDS011;53662;50.114;8.626;2022-07-11T03:20:03;3.35;;;2.60;;
49738;SDS011;53662;50.114;8.626;2022-07-11T03:22:29;8.35;;;2.80;;
49738;SDS011;53662;50.114;8.626;2022-07-11T03:24:55;4.00;;;2.55;;
49738;SDS011;53662;50.114;8.626;2022-07-11T03:27:21;3.75;;;2.70;;
49738;SDS011;53662;50.114;8.626;2022-07-11T03:29:47;5.70;;;2.47;;
49738;SDS011;53662;50.114;8.626;2022-07-11T03:32:13;6.03;;;2.60;;
49738;SDS011;53662;50.114;8.626;2022-07-11T03:34:39;4.45;;;2.35;;
49738;SDS011;53662;50.114;8.626;2022-07-11T03:37:25;9.13;;;2.63;;
49738;SDS011;53662;50.114;8.626;2022-07-11T03:39:51;2.75;;;2.53;;
49738;SDS011;53662;50.114;8.626;2022-07-11T03:42:17;4.47;;;2.33;;
49738;SDS011;53662;50.114;8.626;2022-07-11T03:44:43;4.05;;;2.20;;
49738;SDS011;53662;50.114;8.626;2022-07-11T03:47:09;5.82;;;2.30;;
49738;SDS011;53662;50.114;8.626;2022-07-11T03:49:35;3.65;;;2.03;;
49738;SDS011;53662;50.114;8.626;2022-07-11T03:52:01;4.75;;;2.10;;
49738;SDS011;53662;50.114;8.626;2022-07-11T03:54:27;2.45;;;1.98;;
49738;SDS011;53662;50.114;8.626;2022-07-11T03:56:53;4.10;;;2.10;;
49738;SDS011;53662;50.114;8.626;2022-07-11T03:59:19;4.00;;;2.15;;
49738;SDS011;53662;50.114;8.626;2022-07-11T04:01:45;4.47;;;2.05;;
49738;SDS011;53662;50.114;8.626;2022-07-11T04:04:11;2.00;;;1.90;;
49738;SDS011;53662;50.114;8.626;2022-07-11T04:06:37;4.10;;;1.95;;
49738;SDS011;53662;50.114;8.626;2022-07-11T04:09:03;5.13;;;2.10;;
49738;SDS011;53662;50.114;8.626;2022-07-11T04:11:29;2.25;;;2.10;;
49738;SDS011;53662;50.114;8.626;2022-07-11T04:13:55;4.03;;;2.10;;
49738;SDS011;53662;50.114;8.626;2022-07-11T04:16:21;2.55;;;2.22;;
49738;SDS011;53662;50.114;8.626;2022-07-11T04:18:47;3.95;;;2.30;;
49738;SDS011;53662;50.114;8.626;2022-07-11T04:21:13;3.40;;;2.15;;
49738;SDS011;53662;50.114;8.626;2022-07-11T04:23:38;6.25;;;2.50;;
49738;SDS011;53662;50.114;8.626;2022-07-11T04:26:04;6.47;;;2.40;;
49738;SDS011;53662;50.114;8.626;2022-07-11T04:28:30;4.68;;;2.25;;
49738;SDS011;53662;50.114;8.626;2022-07-11T04:30:59;3.35;;;2.10;;
49738;SDS011;53662;50.114;8.626;2022-07-11T04:33:25;6.68;;;2.42;;
49738;SDS011;53662;50.114;8.626;2022-07-11T04:35:59;7.97;;;2.38;;
49738;SDS011;53662;50.114;8.626;2022-07-11T04:38:25;6.93;;;2.70;;
49738;SDS011;53662;50.114;8.626;2022-07-11T04:40:53;5.07;;;2.42;;
49738;SDS011;53662;50.114;8.626;2022-07-11T04:43:22;8.82;;;2.58;;
49738;SDS011;53662;50.114;8.626;2022-07-11T04:45:48;7.60;;;2.35;;
49738;SDS011;53662;50.114;8.626;2022-07-11T04:48:14;5.22;;;2.58;;
49738;SDS011;53662;50.114;8.626;2022-07-11T04:50:43;2.72;;;2.13;;
49738;SDS011;53662;50.114;8.626;2022-07-11T04:53:10;4.95;;;2.42;;
49738;SDS011;53662;50.114;8.626;2022-07-11T04:55:36;5.05;;;2.75;;
49738;SDS011;53662;50.114;8.626;2022-07-11T04:58:05;6.70;;;2.78;;
49738;SDS011;53662;50.114;8.626;2022-07-11T05:00:31;4.50;;;2.47;;
49738;SDS011;53662;50.114;8.626;2022-07-11T05:02:57;3.58;;;2.35;;
49738;SDS011;53662;50.114;8.626;2022-07-11T05:05:23;5.78;;;2.40;;
49738;SDS011;53662;50.114;8.626;2022-07-11T05:07:49;5.57;;;2.45;;
49738;SDS011;53662;50.114;8.626;2022-07-11T05:10:15;3.30;;;2.38;;
49738;SDS011;53662;50.114;8.626;2022-07-11T05:12:42;5.40;;;2.30;;
49738;SDS011;53662;50.114;8.626;2022-07-11T05:15:08;5.22;;;2.42;;
49738;SDS011;53662;50.114;8.626;2022-07-11T05:17:37;4.97;;;2.58;;
49738;SDS011;53662;50.114;8.626;2022-07-11T05:20:09;2.95;;;2.08;;
49738;SDS011;53662;50.114;8.626;2022-07-11T05:22:36;2.50;;;2.30;;
49738;SDS011;53662;50.114;8.626;2022-07-11T05:25:05;2.90;;;2.30;;
49738;SDS011;53662;50.114;8.626;2022-07-11T05:27:31;3.45;;;2.33;;
49738;SDS011;53662;50.114;8.626;2022-07-11T05:29:57;6.80;;;2.45;;
49738;SDS011;53662;50.114;8.626;2022-07-11T05:32:23;4.53;;;2.50;;
49738;SDS011;53662;50.114;8.626;2022-07-11T05:34:49;5.60;;;2.60;;
49738;SDS011;53662;50.114;8.626;2022-07-11T05:37:14;2.53;;;2.30;;
49738;SDS011;53662;50.114;8.626;2022-07-11T05:39:40;7.18;;;2.78;;
49738;SDS011;53662;50.114;8.626;2022-07-11T05:42:06;6.65;;;2.60;;
49738;SDS011;53662;50.114;8.626;2022-07-11T05:44:32;3.35;;;2.38;;
49738;SDS011;53662;50.114;8.626;2022-07-11T05:47:01;7.32;;;2.60;;
49738;SDS011;53662;50.114;8.626;2022-07-11T05:49:30;6.00;;;2.85;;
49738;SDS011;53662;50.114;8.626;2022-07-11T05:51:56;9.52;;;2.60;;
49738;SDS011;53662;50.114;8.626;2022-07-11T05:54:22;11.48;;;2.72;;
49738;SDS011;53662;50.114;8.626;2022-07-11T05:56:47;13.43;;;3.13;;
49738;SDS011;53662;50.114;8.626;2022-07-11T05:59:14;11.10;;;2.30;;
49738;SDS011;53662;50.114;8.626;2022-07-11T06:01:40;12.50;;;2.42;;
49738;SDS011;53662;50.114;8.626;2022-07-11T06:04:06;5.80;;;1.90;;
49738;SDS011;53662;50.114;8.626;2022-07-11T06:06:32;3.33;;;2.05;;
49738;SDS011;53662;50.114;8.626;2022-07-11T06:08:58;4.07;;;2.47;;
49738;SDS011;53662;50.114;8.626;2022-07-11T06:11:24;4.75;;;2.47;;
49738;SDS011;53662;50.114;8.626;2022-07-11T06:13:50;4.75;;;2.45;;
49738;SDS011;53662;50.114;8.626;2022-07-11T06:16:16;7.30;;;2.33;;
49738;SDS011;53662;50.114;8.626;2022-07-11T06:18:43;4.38;;;2.40;;
49738;SDS011;53662;50.114;8.626;2022-07-11T06:21:09;3.45;;;2.25;;
49738;SDS011;53662;50.114;8.626;2022-07-11T06:23:36;3.63;;;2.45;;
49738;SDS011;53662;50.114;8.626;2022-07-11T06:26:02;4.65;;;2.60;;
49738;SDS011;53662;50.114;8.626;2022-07-11T06:28:28;7.25;;;2.78;;
49738;SDS011;53662;50.114;8.626;2022-07-11T06:30:54;9.77;;;2.50;;
49738;SDS011;53662;50.114;8.626;2022-07-11T06:33:20;7.93;;;3.30;;
49738;SDS011;53662;50.114;8.626;2022-07-11T06:35:47;4.90;;;2.67;;
49738;SDS011;53662;50.114;8.626;2022-07-11T06:38:14;14.93;;;3.13;;
49738;SDS011;53662;50.114;8.626;2022-07-11T06:40:40;5.25;;;3.05;;
49738;SDS011;53662;50.114;8.626;2022-07-11T06:43:07;7.32;;;3.25;;
49738;SDS011;53662;50.114;8.626;2022-07-11T06:45:33;16.02;;;2.90;;
49738;SDS011;53662;50.114;8.626;2022-07-11T06:48:00;7.13;;;3.25;;
49738;SDS011;53662;50.114;8.626;2022-07-11T06:50:26;7.30;;;2.70;;
49738;SDS011;53662;50.114;8.626;2022-07-11T06:52:52;11.77;;;3.17;;
49738;SDS011;53662;50.114;8.626;2022-07-11T06:55:18;4.38;;;2.70;;
49738;SDS011;53662;50.114;8.626;2022-07-11T06:57:44;3.97;;;2.20;;
49738;SDS011;53662;50.114;8.626;2022-07-11T07:00:10;4.88;;;2.40;;
49738;SDS011;53662;50.114;8.626;2022-07-11T07:02:36;8.00;;;2.95;;
49738;SDS011;53662;50.114;8.626;2022-07-11T07:05:03;9.48;;;3.45;;
49738;SDS011;53662;50.114;8.626;2022-07-11T07:07:29;9.80;;;2.67;;
49738;SDS011;53662;50.114;8.626;2022-07-11T07:09:55;5.80;;;2.80;;
49738;SDS011;53662;50.114;8.626;2022-07-11T07:12:21;8.05;;;2.72;;
49738;SDS011;53662;50.114;8.626;2022-07-11T07:14:48;10.35;;;2.88;;
49738;SDS011;53662;50.114;8.626;2022-07-11T07:17:14;3.30;;;2.47;;
49738;SDS011;53662;50.114;8.626;2022-07-11T07:19:40;11.98;;;4.18;;
49738;SDS011;53662;50.114;8.626;2022-07-11T07:22:06;2.78;;;2.58;;
49738;SDS011;53662;50.114;8.626;2022-07-11T07:24:33;4.15;;;2.67;;
49738;SDS011;53662;50.114;8.626;2022-07-11T07:26:59;6.00;;;2.80;;
49738;SDS011;53662;50.114;8.626;2022-07-11T07:29:28;6.15;;;2.72;;
49738;SDS011;53662;50.114;8.626;2022-07-11T07:31:55;2.80;;;2.60;;
49738;SDS011;53662;50.114;8.626;2022-07-11T07:34:21;2.95;;;2.58;;
49738;SDS011;53662;50.114;8.626;2022-07-11T07:36:47;2.53;;;2.20;;
49738;SDS011;53662;50.114;8.626;2022-07-11T07:39:13;2.40;;;2.17;;
49738;SDS011;53662;50.114;8.626;2022-07-11T07:41:39;5.15;;;2.20;;
49738;SDS011;53662;50.114;8.626;2022-07-11T07:44:08;3.63;;;2.10;;
49738;SDS011;53662;50.114;8.626;2022-07-11T07:46:34;4.65;;;1.92;;
49738;SDS011;53662;50.114;8.626;2022-07-11T08:08:20;5.22;;;1.88;;
49738;SDS011;53662;50.114;8.626;2022-07-11T08:10:54;9.35;;;3.35;;
49738;SDS011;53662;50.114;8.626;2022-07-11T08:13:28;4.32;;;2.20;;
49738;SDS011;53662;50.114;8.626;2022-07-11T08:16:35;1.98;;;1.70;;
49738;SDS011;53662;50.114;8.626;2022-07-11T08:25:45;2.60;;;2.10;;
49738;SDS011;53662;50.114;8.626;2022-07-11T08:28:38;3.10;;;1.75;;
49738;SDS011;53662;50.114;8.626;2022-07-11T08:31:04;5.65;;;1.75;;
49738;SDS011;53662;50.114;8.626;2022-07-11T08:33:33;6.35;;;1.73;;
49738;SDS011;53662;50.114;8.626;2022-07-11T08:35:59;2.75;;;1.85;;
49738;SDS011;53662;50.114;8.626;2022-07-11T08:38:25;3.78;;;1.55;;
49738;SDS011;53662;50.114;8.626;2022-07-11T08:40:51;3.55;;;1.83;;
49738;SDS011;53662;50.114;8.626;2022-07-11T08:43:38;1.80;;;1.70;;
49738;SDS011;53662;50.114;8.626;2022-07-11T08:46:04;3.03;;;2.00;;
49738;SDS011;53662;50.114;8.626;2022-07-11T08:48:57;5.40;;;2.05;;
49738;SDS011;53662;50.114;8.626;2022-07-11T08:57:40;7.30;;;1.90;;
49738;SDS011;53662;50.114;8.626;2022-07-11T09:00:09;3.28;;;1.88;;
49738;SDS011;53662;50.114;8.626;2022-07-11T09:02:35;4.13;;;1.90;;
49738;SDS011;53662;50.114;8.626;2022-07-11T09:05:02;2.58;;;1.90;;
49738;SDS011;53662;50.114;8.626;2022-07-11T09:07:31;5.15;;;1.80;;
49738;SDS011;53662;50.114;8.626;2022-07-11T09:09:57;5.93;;;2.47;;
49738;SDS011;53662;50.114;8.626;2022-07-11T09:12:23;9.25;;;2.00;;
49738;SDS011;53662;50.114;8.626;2022-07-11T09:14:49;8.18;;;2.33;;
49738;SDS011;53662;50.114;8.626;2022-07-11T09:59:18;6.53;;;2.45;;
49738;SDS011;53662;50.114;8.626;2022-07-11T10:01:44;3.28;;;2.10;;
49738;SDS011;53662;50.114;8.626;2022-07-11T10:04:13;2.25;;;2.08;;
49738;SDS011;53662;50.114;8.626;2022-07-11T10:06:39;2.65;;;2.10;;
49738;SDS011;53662;50.114;8.626;2022-07-11T10:09:05;3.42;;;2.47;;
49738;SDS011;53662;50.114;8.626;2022-07-11T10:11:32;4.25;;;2.38;;
49738;SDS011;53662;50.114;8.626;2022-07-11T10:13:59;2.47;;;2.28;;
49738;SDS011;53662;50.114;8.626;2022-07-11T10:21:41;2.42;;;2.33;;
49738;SDS011;53662;50.114;8.626;2022-07-11T10:27:06;4.68;;;1.90;;
49738;SDS011;53662;50.114;8.626;2022-07-11T10:29:36;2.53;;;2.35;;
49738;SDS011;53662;50.114;8.626;2022-07-11T10:32:09;7.63;;;3.08;;
49738;SDS011;53662;50.114;8.626;2022-07-11T10:34:35;2.10;;;1.95;;
49738;SDS011;53662;50.114;8.626;2022-07-11T10:37:02;6.75;;;3.70;;
49738;SDS011;53662;50.114;8.626;2022-07-11T10:39:29;6.28;;;2.30;;
49738;SDS011;53662;50.114;8.626;2022-07-11T10:41:56;5.88;;;2.30;;
49738;SDS011;53662;50.114;8.626;2022-07-11T10:44:23;5.13;;;2.05;;
49738;SDS011;53662;50.114;8.626;2022-07-11T10:46:55;2.95;;;2.70;;
49738;SDS011;53662;50.114;8.626;2022-07-11T10:58:31;1.60;;;1.50;;
49738;SDS011;53662;50.114;8.626;2022-07-11T11:01:07;2.25;;;2.15;;
49738;SDS011;53662;50.114;8.626;2022-07-11T11:03:35;3.55;;;2.10;;
49738;SDS011;53662;50.114;8.626;2022-07-11T11:06:01;4.97;;;1.75;;
49738;SDS011;53662;50.114;8.626;2022-07-11T11:11:01;1.55;;;1.52;;
49738;SDS011;53662;50.114;8.626;2022-07-11T11:13:28;3.53;;;1.52;;
49738;SDS011;53662;50.114;8.626;2022-07-11T11:15:54;1.70;;;1.60;;
49738;SDS011;53662;50.114;8.626;2022-07-11T11:23:31;4.70;;;1.60;;
49738;SDS011;53662;50.114;8.626;2022-07-11T11:26:17;8.27;;;1.73;;
49738;SDS011;53662;50.114;8.626;2022-07-11T11:29:05;5.25;;;1.35;;
49738;SDS011;53662;50.114;8.626;2022-07-11T11:31:31;3.15;;;1.30;;
49738;SDS011;53662;50.114;8.626;2022-07-11T11:33:58;7.65;;;1.70;;
49738;SDS011;53662;50.114;8.626;2022-07-11T11:36:25;6.03;;;1.60;;
49738;SDS011;53662;50.114;8.626;2022-07-11T11:38:51;5.10;;;1.85;;
49738;SDS011;53662;50.114;8.626;2022-07-11T11:41:24;1.67;;;1.60;;
49738;SDS011;53662;50.114;8.626;2022-07-11T11:43:51;6.43;;;1.60;;
49738;SDS011;53662;50.114;8.626;2022-07-11T11:46:17;1.52;;;1.45;;
49738;SDS011;53662;50.114;8.626;2022-07-11T11:48:43;2.85;;;1.40;;
49738;SDS011;53662;50.114;8.626;2022-07-11T11:51:16;4.15;;;1.25;;
49738;SDS011;53662;50.114;8.626;2022-07-11T11:53:52;1.50;;;1.33;;
49738;SDS011;53662;50.114;8.626;2022-07-11T11:58:47;4.32;;;1.40;;
49738;SDS011;53662;50.114;8.626;2022-07-11T12:01:14;1.85;;;1.17;;
49738;SDS011;53662;50.114;8.626;2022-07-11T12:03:48;1.38;;;1.27;;
49738;SDS011;53662;50.114;8.626;2022-07-11T12:06:14;0.98;;;0.98;;
49738;SDS011;53662;50.114;8.626;2022-07-11T12:08:40;1.23;;;1.13;;
49738;SDS011;53662;50.114;8.626;2022-07-11T12:11:11;1.20;;;1.10;;
49738;SDS011;53662;50.114;8.626;2022-07-11T12:13:37;0.97;;;0.90;;
49738;SDS011;53662;50.114;8.626;2022-07-11T12:16:03;1.95;;;1.17;;
49738;SDS011;53662;50.114;8.626;2022-07-11T12:18:55;0.95;;;0.95;;
49738;SDS011;53662;50.114;8.626;2022-07-11T12:21:21;1.80;;;1.20;;
49738;SDS011;53662;50.114;8.626;2022-07-11T12:23:47;1.10;;;1.10;;
49738;SDS011;53662;50.114;8.626;2022-07-11T12:26:13;6.32;;;1.30;;
49738;SDS011;53662;50.114;8.626;2022-07-11T12:31:24;1.10;;;1.10;;
49738;SDS011;53662;50.114;8.626;2022-07-11T12:33:51;19.25;;;2.00;;
49738;SDS011;53662;50.114;8.626;2022-07-11T12:36:17;1.20;;;1.20;;
49738;SDS011;53662;50.114;8.626;2022-07-11T12:38:52;1.00;;;1.00;;
49738;SDS011;53662;50.114;8.626;2022-07-11T12:41:19;1.13;;;1.02;;
49738;SDS011;53662;50.114;8.626;2022-07-11T12:43:48;2.88;;;1.13;;
49738;SDS011;53662;50.114;8.626;2022-07-11T12:46:34;3.90;;;1.52;;
49738;SDS011;53662;50.114;8.626;2022-07-11T12:49:02;3.85;;;1.30;;
49738;SDS011;53662;50.114;8.626;2022-07-11T12:54:01;5.10;;;1.40;;
49738;SDS011;53662;50.114;8.626;2022-07-11T12:56:27;3.80;;;1.30;;
49738;SDS011;53662;50.114;8.626;2022-07-11T12:58:52;7.18;;;1.65;;
49738;SDS011;53662;50.114;8.626;2022-07-11T13:01:18;1.45;;;1.35;;
49738;SDS011;53662;50.114;8.626;2022-07-11T13:03:45;3.75;;;1.40;;
49738;SDS011;53662;50.114;8.626;2022-07-11T13:06:10;8.15;;;1.77;;
49738;SDS011;53662;50.114;8.626;2022-07-11T13:08:37;8.43;;;1.98;;
49738;SDS011;53662;50.114;8.626;2022-07-11T13:11:16;2.70;;;1.45;;
49738;SDS011;53662;50.114;8.626;2022-07-11T13:13:43;9.70;;;1.50;;
49738;SDS011;53662;50.114;8.626;2022-07-11T13:16:11;6.38;;;1.60;;
49738;SDS011;53662;50.114;8.626;2022-07-11T13:18:38;2.22;;;1.30;;
49738;SDS011;53662;50.114;8.626;2022-07-11T13:21:04;3.15;;;1.20;;
49738;SDS011;53662;50.114;8.626;2022-07-11T13:23:31;8.65;;;1.73;;
49738;SDS011;53662;50.114;8.626;2022-07-11T13:25:58;3.55;;;1.17;;
49738;SDS011;53662;50.114;8.626;2022-07-11T13:28:24;2.40;;;1.20;;
49738;SDS011;53662;50.114;8.626;2022-07-11T13:30:50;1.75;;;1.40;;
49738;SDS011;53662;50.114;8.626;2022-07-11T13:33:17;1.40;;;1.30;;
49738;SDS011;53662;50.114;8.626;2022-07-11T13:35:43;6.70;;;1.58;;
49738;SDS011;53662;50.114;8.626;2022-07-11T13:38:10;24.52;;;2.03;;
49738;SDS011;53662;50.114;8.626;2022-07-11T13:40:36;9.52;;;1.48;;
49738;SDS011;53662;50.114;8.626;2022-07-11T13:43:02;8.55;;;2.03;;
49738;SDS011;53662;50.114;8.626;2022-07-11T13:45:28;14.60;;;1.92;;
49738;SDS011;53662;50.114;8.626;2022-07-11T13:47:54;8.63;;;1.30;;
49738;SDS011;53662;50.114;8.626;2022-07-11T13:50:21;0.95;;;0.95;;
49738;SDS011;53662;50.114;8.626;2022-07-11T13:52:47;1.00;;;1.00;;
49738;SDS011;53662;50.114;8.626;2022-07-11T13:55:14;1.55;;;1.45;;
49738;SDS011;53662;50.114;8.626;2022-07-11T13:57:40;1.83;;;1.45;;
49738;SDS011;53662;50.114;8.626;2022-07-11T14:00:06;3.10;;;1.65;;
49738;SDS011;53662;50.114;8.626;2022-07-11T14:02:33;26.45;;;2.80;;
49738;SDS011;53662;50.114;8.626;2022-07-11T14:04:59;17.98;;;2.75;;
49738;SDS011;53662;50.114;8.626;2022-07-11T14:07:25;1.65;;;1.13;;
49738;SDS011;53662;50.114;8.626;2022-07-11T14:09:51;10.77;;;1.58;;
49738;SDS011;53662;50.114;8.626;2022-07-11T14:12:18;45.17;;;3.85;;
49738;SDS011;53662;50.114;8.626;2022-07-11T14:14:44;8.32;;;1.70;;
49738;SDS011;53662;50.114;8.626;2022-07-11T14:17:10;15.23;;;1.92;;
49738;SDS011;53662;50.114;8.626;2022-07-11T14:19:36;8.63;;;1.60;;
49738;SDS011;53662;50.114;8.626;2022-07-11T14:22:04;8.52;;;1.48;;
49738;SDS011;53662;50.114;8.626;2022-07-11T14:24:30;4.18;;;1.60;;
49738;SDS011;53662;50.114;8.626;2022-07-11T14:26:56;5.40;;;1.40;;
49738;SDS011;53662;50.114;8.626;2022-07-11T14:29:23;1.27;;;1.20;;
49738;SDS011;53662;50.114;8.626;2022-07-11T14:31:50;1.90;;;1.17;;
49738;SDS011;53662;50.114;8.626;2022-07-11T14:34:18;5.90;;;1.63;;
49738;SDS011;53662;50.114;8.626;2022-07-11T14:36:44;11.68;;;2.22;;
49738;SDS011;53662;50.114;8.626;2022-07-11T14:39:10;2.35;;;1.10;;
49738;SDS011;53662;50.114;8.626;2022-07-11T14:41:36;1.83;;;1.33;;
49738;SDS011;53662;50.114;8.626;2022-07-11T14:44:02;1.95;;;1.00;;
49738;SDS011;53662;50.114;8.626;2022-07-11T14:46:28;6.40;;;1.15;;
49738;SDS011;53662;50.114;8.626;2022-07-11T14:48:54;0.80;;;0.80;;
49738;SDS011;53662;50.114;8.626;2022-07-11T14:51:20;8.60;;;1.00;;
49738;SDS011;53662;50.114;8.626;2022-07-11T14:53:46;0.95;;;0.95;;
49738;SDS011;53662;50.114;8.626;2022-07-11T14:56:12;4.15;;;1.00;;
49738;SDS011;53662;50.114;8.626;2022-07-11T14:58:38;1.67;;;1.25;;
49738;SDS011;53662;50.114;8.626;2022-07-11T15:01:06;4.45;;;1.60;;
49738;SDS011;53662;50.114;8.626;2022-07-11T15:03:32;5.20;;;1.42;;
49738;SDS011;53662;50.114;8.626;2022-07-11T15:06:05;2.03;;;1.38;;
49738;SDS011;53662;50.114;8.626;2022-07-11T15:08:31;4.35;;;1.60;;
49738;SDS011;53662;50.114;8.626;2022-07-11T15:11:16;2.78;;;1.40;;
49738;SDS011;53662;50.114;8.626;2022-07-11T15:14:00;6.25;;;1.83;;
49738;SDS011;53662;50.114;8.626;2022-07-11T15:16:26;2.08;;;1.35;;
49738;SDS011;53662;50.114;8.626;2022-07-11T15:18:55;1.60;;;1.40;;
49738;SDS011;53662;50.114;8.626;2022-07-11T15:21:20;2.80;;;1.40;;
49738;SDS011;53662;50.114;8.626;2022-07-11T15:23:46;1.55;;;1.40;;
49738;SDS011;53662;50.114;8.626;2022-07-11T15:26:13;1.42;;;1.33;;
49738;SDS011;53662;50.114;8.626;2022-07-11T15:28:43;3.60;;;1.42;;
49738;SDS011;53662;50.114;8.626;2022-07-11T15:31:09;1.60;;;1.40;;
49738;SDS011;53662;50.114;8.626;2022-07-11T15:33:35;1.40;;;1.30;;
49738;SDS011;53662;50.114;8.626;2022-07-11T15:36:01;1.60;;;1.50;;
49738;SDS011;53662;50.114;8.626;2022-07-11T15:38:27;1.60;;;1.50;;
49738;SDS011;53662;50.114;8.626;2022-07-11T15:40:53;5.43;;;2.00;;
49738;SDS011;53662;50.114;8.626;2022-07-11T15:43:20;7.50;;;2.20;;
49738;SDS011;53662;50.114;8.626;2022-07-11T15:45:46;1.27;;;1.27;;
49738;SDS011;53662;50.114;8.626;2022-07-11T15:48:12;1.27;;;1.17;;
49738;SDS011;53662;50.114;8.626;2022-07-11T15:50:38;1.33;;;1.13;;
49738;SDS011;53662;50.114;8.626;2022-07-11T15:53:04;1.58;;;1.30;;
49738;SDS011;53662;50.114;8.626;2022-07-11T15:55:30;1.63;;;1.40;;
49738;SDS011;53662;50.114;8.626;2022-07-11T15:57:56;1.00;;;1.00;;
49738;SDS011;53662;50.114;8.626;2022-07-11T16:00:22;1.40;;;1.30;;
49738;SDS011;53662;50.114;8.626;2022-07-11T16:02:49;1.17;;;1.02;;
49738;SDS011;53662;50.114;8.626;2022-07-11T16:05:15;1.83;;;1.33;;
49738;SDS011;53662;50.114;8.626;2022-07-11T16:07:42;4.68;;;1.40;;
49738;SDS011;53662;50.114;8.626;2022-07-11T16:10:08;5.55;;;1.50;;
49738;SDS011;53662;50.114;8.626;2022-07-11T16:12:34;3.25;;;1.25;;
49738;SDS011;53662;50.114;8.626;2022-07-11T16:15:00;1.50;;;1.40;;
49738;SDS011;53662;50.114;8.626;2022-07-11T16:17:27;2.25;;;1.23;;
49738;SDS011;53662;50.114;8.626;2022-07-11T16:19:53;4.65;;;1.70;;
49738;SDS011;53662;50.114;8.626;2022-07-11T16:22:19;1.20;;;1.20;;
49738;SDS011;53662;50.114;8.626;2022-07-11T16:24:45;2.13;;;1.35;;
49738;SDS011;53662;50.114;8.626;2022-07-11T16:27:11;3.72;;;1.63;;
49738;SDS011;53662;50.114;8.626;2022-07-11T16:29:37;1.42;;;1.42;;
49738;SDS011;53662;50.114;8.626;2022-07-11T16:32:03;4.90;;;1.50;;
49738;SDS011;53662;50.114;8.626;2022-07-11T16:34:29;5.63;;;1.30;;
49738;SDS011;53662;50.114;8.626;2022-07-11T16:36:56;1.00;;;1.00;;